Time;durP1;ratioP1;P1;durP2;ratioP2;P2;SDS_P1;SDS_P2;PMS_P1;PMS_P2;Temp;Humidity;BMP_temperature;BMP_pressure;BME280_temperature;BME280_humidity;BME280_pressure;Samples;Min_cycle;Max_cycle;Signal;HPM_P1;HPM_P2
2023/05/31 00:00:33;;;;;;;6.75;3.80;;;;;;;;;;21003741;28;20041;-63
2023/05/31 00:10:34;;;;;;;8.73;4.28;;;;;;;;;;21002767;28;20447;-63
2023/05/31 00:20:35;;;;;;;6.25;3.70;;;;;;;;;;21001827;28;20048;-63
2023/05/31 00:30:36;;;;;;;6.88;3.25;;;;;;;;;;20998849;28;20052;-63
2023/05/31 00:40:37;;;;;;;9.18;3.65;;;;;;;;;;20999036;28;20049;-63
2023/05/31 00:50:38;;;;;;;8.32;3.85;;;;;;;;;;20998265;28;20055;-63
2023/05/31 01:00:39;;;;;;;6.53;3.40;;;;;;;;;;20999072;28;20062;-63
2023/05/31 01:10:41;;;;;;;10.35;3.42;;;;;;;;;;20999594;28;20048;-62
2023/05/31 01:20:46;;;;;;;7.75;3.75;;;;;;;;;;20996465;28;20045;-63
2023/05/31 01:30:49;;;;;;;7.03;3.90;;;;;;;;;;20996316;28;20490;-63
2023/05/31 01:40:51;;;;;;;6.80;3.92;;;;;;;;;;20996652;28;20472;-63
2023/05/31 01:50:53;;;;;;;8.35;3.83;;;;;;;;;;20995199;28;20044;-63
2023/05/31 02:00:54;;;;;;;8.60;4.25;;;;;;;;;;20996125;28;20041;-63
2023/05/31 02:10:55;;;;;;;8.05;4.07;;;;;;;;;;20994598;28;20123;-63
2023/05/31 02:20:57;;;;;;;8.05;3.70;;;;;;;;;;20995143;28;20461;-63
2023/05/31 02:30:59;;;;;;;7.70;3.78;;;;;;;;;;20995380;28;20057;-63
2023/05/31 02:41:00;;;;;;;6.43;3.60;;;;;;;;;;20994672;28;20044;-63
2023/05/31 02:51:01;;;;;;;5.40;3.45;;;;;;;;;;20994753;28;20047;-63
2023/05/31 03:01:02;;;;;;;9.45;4.30;;;;;;;;;;21008811;28;20096;-63
2023/05/31 03:11:03;;;;;;;8.57;3.90;;;;;;;;;;21006509;28;20047;-63
2023/05/31 03:21:04;;;;;;;7.28;3.33;;;;;;;;;;21007001;28;20048;-63
2023/05/31 03:31:05;;;;;;;8.02;4.20;;;;;;;;;;21005002;28;20060;-63
2023/05/31 03:41:07;;;;;;;5.45;3.50;;;;;;;;;;21005597;28;20051;-63
2023/05/31 03:51:08;;;;;;;8.90;3.58;;;;;;;;;;21004885;28;20052;-63
2023/05/31 04:01:09;;;;;;;8.00;3.63;;;;;;;;;;21003765;28;20127;-63
2023/05/31 04:11:10;;;;;;;7.30;3.65;;;;;;;;;;21002916;28;20482;-62
2023/05/31 04:21:12;;;;;;;11.30;8.70;;;;;;;;;;21002224;28;20037;-63
2023/05/31 04:31:13;;;;;;;10.38;7.00;;;;;;;;;;21000330;28;20059;-62
2023/05/31 04:41:15;;;;;;;5.35;3.35;;;;;;;;;;21000461;28;20324;-63
2023/05/31 04:51:17;;;;;;;7.70;3.80;;;;;;;;;;20999685;28;20114;-63
2023/05/31 05:01:18;;;;;;;6.00;3.40;;;;;;;;;;20999060;28;20056;-64
2023/05/31 05:11:19;;;;;;;8.93;4.00;;;;;;;;;;20997925;28;20109;-63
2023/05/31 05:21:20;;;;;;;9.85;3.67;;;;;;;;;;20995889;28;20044;-62
2023/05/31 05:31:21;;;;;;;7.95;3.92;;;;;;;;;;20995725;28;20048;-62
2023/05/31 05:41:22;;;;;;;9.15;3.88;;;;;;;;;;20996876;28;20048;-63
2023/05/31 05:51:24;;;;;;;12.30;4.40;;;;;;;;;;20996366;28;20197;-63
2023/05/31 06:01:26;;;;;;;7.75;3.47;;;;;;;;;;20994140;28;20044;-62
2023/05/31 06:11:27;;;;;;;6.82;4.13;;;;;;;;;;20993776;28;20200;-63
2023/05/31 06:21:28;;;;;;;8.55;4.05;;;;;;;;;;20993236;28;20132;-63
2023/05/31 06:31:31;;;;;;;9.63;4.18;;;;;;;;;;21004471;28;20057;-63
2023/05/31 06:41:34;;;;;;;14.95;4.63;;;;;;;;;;21009533;28;20455;-63
2023/05/31 06:51:36;;;;;;;10.35;5.85;;;;;;;;;;21008428;28;20049;-63
2023/05/31 07:01:37;;;;;;;12.55;5.47;;;;;;;;;;21008106;28;20127;-62
2023/05/31 07:11:41;;;;;;;8.07;5.30;;;;;;;;;;21006152;28;20076;-63
2023/05/31 07:21:42;;;;;;;10.35;5.85;;;;;;;;;;21007017;28;20534;-62
2023/05/31 07:31:43;;;;;;;11.73;5.70;;;;;;;;;;21005087;28;20524;-62
2023/05/31 07:41:44;;;;;;;14.45;5.85;;;;;;;;;;21003208;28;20044;-62
2023/05/31 07:51:46;;;;;;;5.93;2.45;;;;;;;;;;21004445;28;20462;-69
2023/05/31 08:01:47;;;;;;;9.77;4.10;;;;;;;;;;21001523;28;20044;-64
2023/05/31 08:11:49;;;;;;;11.88;6.15;;;;;;;;;;21002487;28;20048;-67
2023/05/31 08:21:51;;;;;;;22.48;9.77;;;;;;;;;;21000480;28;20059;-63
2023/05/31 08:31:52;;;;;;;20.00;8.75;;;;;;;;;;20999603;28;20562;-68
2023/05/31 08:42:04;;;;;;;18.30;6.85;;;;;;;;;;21000257;28;20626;-66
2023/05/31 08:52:06;;;;;;;14.52;7.00;;;;;;;;;;20997255;28;20080;-63
2023/05/31 09:02:08;;;;;;;12.38;7.72;;;;;;;;;;20999030;28;20047;-67
2023/05/31 09:12:10;;;;;;;8.93;5.82;;;;;;;;;;20998085;28;20068;-72
2023/05/31 09:22:11;;;;;;;14.45;6.93;;;;;;;;;;20997265;28;20109;-66
2023/05/31 09:32:12;;;;;;;13.65;5.68;;;;;;;;;;20995870;28;20048;-66
2023/05/31 09:42:13;;;;;;;9.07;5.57;;;;;;;;;;20992902;28;20047;-63
2023/05/31 09:52:15;;;;;;;9.95;5.68;;;;;;;;;;20988738;28;20135;-62
2023/05/31 10:02:16;;;;;;;9.60;4.38;;;;;;;;;;20992677;28;20044;-63
2023/05/31 10:12:18;;;;;;;6.22;3.00;;;;;;;;;;21011792;28;20502;-62
2023/05/31 10:22:20;;;;;;;5.80;2.90;;;;;;;;;;21010427;28;20046;-62
2023/05/31 10:32:24;;;;;;;7.55;3.45;;;;;;;;;;21011222;28;20048;-62
2023/05/31 10:42:34;;;;;;;4.78;2.33;;;;;;;;;;21009828;28;20052;-62
2023/05/31 10:52:35;;;;;;;8.52;3.53;;;;;;;;;;21009224;28;20051;-62
2023/05/31 11:02:36;;;;;;;8.02;3.33;;;;;;;;;;21008779;28;20067;-61
2023/05/31 11:12:40;;;;;;;4.05;2.40;;;;;;;;;;21006415;28;20040;-63
2023/05/31 11:22:41;;;;;;;7.68;2.58;;;;;;;;;;21004846;28;20086;-62
2023/05/31 11:32:43;;;;;;;2.47;1.20;;;;;;;;;;21006098;28;20138;-62
2023/05/31 11:42:46;;;;;;;3.10;1.45;;;;;;;;;;21003784;28;20045;-62
2023/05/31 11:52:47;;;;;;;2.70;1.30;;;;;;;;;;21002820;28;20056;-62
2023/05/31 12:02:52;;;;;;;5.15;1.70;;;;;;;;;;21003738;28;20045;-62
2023/05/31 12:12:53;;;;;;;2.22;1.35;;;;;;;;;;21002910;28;20101;-62
2023/05/31 12:23:09;;;;;;;2.72;1.33;;;;;;;;;;21000796;28;20185;-63
2023/05/31 12:33:11;;;;;;;1.63;0.95;;;;;;;;;;20999369;28;20056;-62
2023/05/31 12:43:18;;;;;;;2.60;1.40;;;;;;;;;;20999858;28;20052;-63
2023/05/31 12:53:21;;;;;;;5.53;2.17;;;;;;;;;;20999310;28;20586;-62
2023/05/31 13:03:22;;;;;;;2.72;1.23;;;;;;;;;;20999185;28;20551;-62
2023/05/31 13:13:23;;;;;;;3.65;1.40;;;;;;;;;;20996853;28;20048;-62
2023/05/31 13:23:25;;;;;;;4.03;1.40;;;;;;;;;;20997293;28;20498;-63
2023/05/31 13:33:28;;;;;;;5.50;1.08;;;;;;;;;;20995288;28;20057;-62
2023/05/31 13:43:29;;;;;;;2.72;1.33;;;;;;;;;;20996425;28;20048;-63
2023/05/31 13:53:30;;;;;;;3.33;1.33;;;;;;;;;;20996065;28;20045;-62
2023/05/31 14:03:31;;;;;;;1.33;0.70;;;;;;;;;;20995817;28;20159;-63
2023/05/31 14:13:33;;;;;;;2.65;1.45;;;;;;;;;;20995236;28;20129;-63
2023/05/31 14:23:34;;;;;;;1.60;1.02;;;;;;;;;;20995048;28;20382;-62
2023/05/31 14:33:39;;;;;;;5.53;0.95;;;;;;;;;;20993884;28;20059;-63
2023/05/31 14:43:40;;;;;;;5.13;1.00;;;;;;;;;;20994427;28;20402;-62
2023/05/31 14:53:41;;;;;;;3.78;1.65;;;;;;;;;;21005839;28;20132;-63
2023/05/31 15:03:42;;;;;;;4.57;1.50;;;;;;;;;;21008046;28;20041;-63
2023/05/31 15:13:44;;;;;;;2.28;0.90;;;;;;;;;;21007250;28;20052;-63
2023/05/31 15:23:45;;;;;;;3.65;0.90;;;;;;;;;;21007226;28;20478;-63
2023/05/31 15:33:46;;;;;;;1.25;0.68;;;;;;;;;;21004755;28;20048;-63
2023/05/31 15:43:47;;;;;;;2.03;1.10;;;;;;;;;;21004277;28;20048;-67
2023/05/31 15:53:49;;;;;;;3.08;1.60;;;;;;;;;;21002933;28;20260;-70
2023/05/31 16:03:51;;;;;;;3.15;1.20;;;;;;;;;;21002329;28;20127;-71
2023/05/31 16:13:52;;;;;;;1.65;1.00;;;;;;;;;;21001938;28;20395;-72
2023/05/31 16:23:53;;;;;;;2.35;1.25;;;;;;;;;;21001798;28;20120;-74
2023/05/31 16:33:55;;;;;;;2.42;1.00;;;;;;;;;;20999993;28;20097;-71
2023/05/31 16:43:56;;;;;;;3.30;1.10;;;;;;;;;;20998831;28;20048;-69
2023/05/31 16:53:57;;;;;;;3.95;1.13;;;;;;;;;;20999428;28;20048;-71
2023/05/31 17:03:58;;;;;;;2.50;0.90;;;;;;;;;;20998337;28;20044;-75
2023/05/31 17:13:59;;;;;;;2.35;1.33;;;;;;;;;;20999306;28;20037;-72
2023/05/31 17:24:00;;;;;;;3.05;1.00;;;;;;;;;;20998288;28;20093;-70
2023/05/31 17:34:01;;;;;;;1.80;0.82;;;;;;;;;;20996764;28;20460;-73
2023/05/31 17:44:04;;;;;;;7.43;4.47;;;;;;;;;;20998450;28;20055;-72
2023/05/31 17:54:05;;;;;;;2.38;1.58;;;;;;;;;;20997140;28;20049;-66
2023/05/31 18:04:06;;;;;;;1.70;1.20;;;;;;;;;;20995800;28;20513;-66
2023/05/31 18:14:07;;;;;;;5.07;1.83;;;;;;;;;;20994109;28;20070;-66
2023/05/31 18:24:08;;;;;;;2.05;1.08;;;;;;;;;;21001923;28;20471;-67
2023/05/31 18:34:10;;;;;;;3.22;0.93;;;;;;;;;;21008752;28;20071;-67
2023/05/31 18:44:11;;;;;;;2.35;1.27;;;;;;;;;;21009848;28;20055;-66
2023/05/31 18:54:12;;;;;;;2.60;0.90;;;;;;;;;;21008750;28;20044;-66
2023/05/31 19:04:13;;;;;;;4.30;2.28;;;;;;;;;;21007985;28;20052;-66
2023/05/31 19:14:18;;;;;;;4.00;1.40;;;;;;;;;;21007201;28;20036;-66
2023/05/31 19:24:19;;;;;;;2.13;0.88;;;;;;;;;;21007614;28;20124;-66
2023/05/31 19:34:21;;;;;;;2.50;1.02;;;;;;;;;;21004631;28;20113;-66
2023/05/31 19:44:22;;;;;;;3.13;1.20;;;;;;;;;;21004753;28;20482;-66
2023/05/31 19:54:24;;;;;;;1.90;0.95;;;;;;;;;;21002999;28;20044;-66
2023/05/31 20:04:25;;;;;;;4.15;0.88;;;;;;;;;;21003182;28;20490;-66
2023/05/31 20:14:26;;;;;;;8.85;6.10;;;;;;;;;;21002957;28;20540;-67
2023/05/31 20:24:27;;;;;;;1.67;1.02;;;;;;;;;;21001515;28;20101;-66
2023/05/31 20:34:29;;;;;;;3.38;1.20;;;;;;;;;;20999402;28;20532;-65
2023/05/31 20:44:30;;;;;;;3.65;1.23;;;;;;;;;;20998479;28;20059;-66
2023/05/31 20:54:31;;;;;;;3.28;1.13;;;;;;;;;;20998742;28;20123;-66
2023/05/31 21:04:32;;;;;;;2.70;1.10;;;;;;;;;;20997119;28;20140;-66
2023/05/31 21:14:33;;;;;;;4.15;1.00;;;;;;;;;;20998398;28;20072;-66
2023/05/31 21:24:35;;;;;;;2.00;1.00;;;;;;;;;;20996654;28;20055;-66
2023/05/31 21:34:36;;;;;;;1.70;1.00;;;;;;;;;;20994540;28;20109;-66
2023/05/31 21:44:37;;;;;;;4.18;1.73;;;;;;;;;;20995269;28;20493;-68
2023/05/31 21:54:38;;;;;;;2.90;1.42;;;;;;;;;;20995152;28;20524;-66
2023/05/31 22:04:39;;;;;;;3.80;1.52;;;;;;;;;;21010633;28;20052;-66
2023/05/31 22:14:41;;;;;;;2.80;1.20;;;;;;;;;;21011086;28;20583;-66
2023/05/31 22:24:42;;;;;;;3.60;1.38;;;;;;;;;;21010695;28;20119;-68
2023/05/31 22:34:43;;;;;;;5.85;3.00;;;;;;;;;;21009100;28;20417;-66
2023/05/31 22:44:44;;;;;;;3.08;1.65;;;;;;;;;;21010145;28;20049;-66
2023/05/31 22:54:45;;;;;;;5.60;1.52;;;;;;;;;;21008435;28;20148;-66
2023/05/31 23:04:46;;;;;;;3.22;1.80;;;;;;;;;;21006411;28;20098;-66
2023/05/31 23:14:48;;;;;;;2.97;1.38;;;;;;;;;;21005962;28;20091;-67
2023/05/31 23:24:49;;;;;;;4.15;1.80;;;;;;;;;;21006624;28;20052;-66
2023/05/31 23:34:50;;;;;;;4.80;1.80;;;;;;;;;;21006654;28;20052;-66
2023/05/31 23:44:51;;;;;;;2.85;1.17;;;;;;;;;;21004533;28;20056;-66
2023/05/31 23:54:52;;;;;;;4.38;1.45;;;;;;;;;;21003924;28;20040;-67
